Time;durP1;ratioP1;P1;durP2;ratioP2;P2;SDS_P1;SDS_P2;PMS_P1;PMS_P2;Temp;Humidity;BMP_temperature;BMP_pressure;BME280_temperature;BME280_humidity;BME280_pressure;Samples;Min_cycle;Max_cycle;Signal;HPM_P1;HPM_P2
2024/01/09 00:01:17;;;;;;;0.00;0.00;;;;;;;;;;5077016;28;20020;-92
2024/01/09 00:03:42;;;;;;;0.00;0.00;;;;;;;;;;5058767;28;20127;-90
2024/01/09 00:06:14;;;;;;;0.00;0.00;;;;;;;;;;5057919;28;20024;-91
2024/01/09 00:08:40;;;;;;;0.00;0.00;;;;;;;;;;5057419;28;20043;-89
2024/01/09 00:11:05;;;;;;;0.00;0.00;;;;;;;;;;5076330;28;20028;-91
2024/01/09 00:13:31;;;;;;;0.00;0.00;;;;;;;;;;5050151;28;20033;-93
2024/01/09 00:15:56;;;;;;;0.00;0.00;;;;;;;;;;5056953;28;20358;-92
2024/01/09 00:18:22;;;;;;;0.00;0.00;;;;;;;;;;5055716;28;20033;-91
2024/01/09 00:20:47;;;;;;;0.00;0.00;;;;;;;;;;5089232;28;20021;-92
2024/01/09 00:23:13;;;;;;;0.00;0.00;;;;;;;;;;5072197;28;20029;-93
2024/01/09 00:25:39;;;;;;;0.00;0.00;;;;;;;;;;5072267;28;20043;-90
2024/01/09 00:28:05;;;;;;;0.00;0.00;;;;;;;;;;5091879;28;20115;-91
2024/01/09 00:30:30;;;;;;;0.00;0.00;;;;;;;;;;5075334;28;20522;-91
2024/01/09 00:32:56;;;;;;;0.00;0.00;;;;;;;;;;5075569;28;20081;-88
2024/01/09 00:35:21;;;;;;;0.00;0.00;;;;;;;;;;5061411;28;20028;-93
2024/01/09 00:37:47;;;;;;;0.00;0.00;;;;;;;;;;5075488;28;20056;-92
2024/01/09 00:40:12;;;;;;;0.00;0.00;;;;;;;;;;5061951;28;20461;-91
2024/01/09 00:42:38;;;;;;;0.00;0.00;;;;;;;;;;5045313;28;20156;-92
2024/01/09 00:45:06;;;;;;;0.00;0.00;;;;;;;;;;5061145;28;20115;-90
2024/01/09 00:47:31;;;;;;;0.00;0.00;;;;;;;;;;5062734;28;20036;-92
2024/01/09 00:49:57;;;;;;;0.00;0.00;;;;;;;;;;5062223;28;20031;-91
2024/01/09 00:52:24;;;;;;;0.00;0.00;;;;;;;;;;5077592;28;20072;-90
2024/01/09 00:54:49;;;;;;;0.00;0.00;;;;;;;;;;5063029;28;20039;-91
2024/01/09 00:57:15;;;;;;;0.00;0.00;;;;;;;;;;5062107;28;20028;-90
2024/01/09 00:59:40;;;;;;;0.00;0.00;;;;;;;;;;5063274;28;20028;-92
2024/01/09 01:02:06;;;;;;;0.00;0.00;;;;;;;;;;5079989;28;20025;-92
2024/01/09 01:04:31;;;;;;;0.00;0.00;;;;;;;;;;5044416;28;20036;-90
2024/01/09 01:06:57;;;;;;;0.00;0.00;;;;;;;;;;5077162;28;20028;-92
2024/01/09 01:09:22;;;;;;;0.00;0.00;;;;;;;;;;5043307;28;20040;-91
2024/01/09 01:11:48;;;;;;;0.00;0.00;;;;;;;;;;5078858;28;20041;-92
2024/01/09 01:14:13;;;;;;;0.00;0.00;;;;;;;;;;5073057;28;20161;-91
2024/01/09 01:16:39;;;;;;;0.00;0.00;;;;;;;;;;5069697;28;20033;-91
2024/01/09 01:19:04;;;;;;;0.00;0.00;;;;;;;;;;5071257;28;20033;-93
2024/01/09 01:21:30;;;;;;;0.00;0.00;;;;;;;;;;5047189;28;20480;-93
2024/01/09 01:23:55;;;;;;;0.00;0.00;;;;;;;;;;5064084;28;20036;-92
2024/01/09 01:26:21;;;;;;;0.00;0.00;;;;;;;;;;5050634;28;20028;-89
2024/01/09 01:28:46;;;;;;;0.00;0.00;;;;;;;;;;5095722;28;20164;-88
2024/01/09 01:31:12;;;;;;;0.00;0.00;;;;;;;;;;5095195;28;20037;-92
2024/01/09 01:33:38;;;;;;;0.00;0.00;;;;;;;;;;5078178;28;20032;-88
2024/01/09 01:36:03;;;;;;;0.00;0.00;;;;;;;;;;5079571;28;20017;-90
2024/01/09 01:38:29;;;;;;;0.00;0.00;;;;;;;;;;5061458;28;20367;-88
2024/01/09 01:40:54;;;;;;;0.00;0.00;;;;;;;;;;5043385;28;20122;-89
2024/01/09 01:43:20;;;;;;;0.00;0.00;;;;;;;;;;5059287;28;20021;-92
2024/01/09 01:45:45;;;;;;;0.00;0.00;;;;;;;;;;5080187;28;20024;-93
2024/01/09 01:48:11;;;;;;;0.00;0.00;;;;;;;;;;5077391;28;20514;-88
2024/01/09 01:50:37;;;;;;;0.00;0.00;;;;;;;;;;5060251;28;20141;-91
2024/01/09 01:53:03;;;;;;;0.00;0.00;;;;;;;;;;5060020;28;20032;-91
2024/01/09 01:55:29;;;;;;;0.10;0.00;;;;;;;;;;5060595;28;20056;-88
2024/01/09 01:57:55;;;;;;;0.00;0.00;;;;;;;;;;5077072;28;20090;-93
2024/01/09 02:00:20;;;;;;;0.00;0.00;;;;;;;;;;5044464;28;20074;-88
2024/01/09 02:02:50;;;;;;;0.00;0.00;;;;;;;;;;5048835;28;20457;-91
2024/01/09 02:05:17;;;;;;;0.00;0.00;;;;;;;;;;5060715;28;20071;-93
2024/01/09 02:07:44;;;;;;;0.00;0.00;;;;;;;;;;5059103;28;20039;-85
2024/01/09 02:10:10;;;;;;;0.00;0.00;;;;;;;;;;5075628;28;20043;-88
2024/01/09 02:12:35;;;;;;;0.00;0.00;;;;;;;;;;5060072;28;20059;-92
2024/01/09 02:15:01;;;;;;;0.00;0.00;;;;;;;;;;5075651;28;20466;-91
2024/01/09 02:17:26;;;;;;;0.00;0.00;;;;;;;;;;5058829;28;20046;-89
2024/01/09 02:19:52;;;;;;;0.00;0.00;;;;;;;;;;5042549;28;20123;-89
2024/01/09 02:22:18;;;;;;;0.00;0.00;;;;;;;;;;5042891;28;20101;-92
2024/01/09 02:24:43;;;;;;;0.00;0.00;;;;;;;;;;5045125;28;20026;-89
2024/01/09 02:27:11;;;;;;;0.00;0.00;;;;;;;;;;5080748;28;20036;-88
2024/01/09 02:29:36;;;;;;;0.00;0.00;;;;;;;;;;5078298;28;20025;-91
2024/01/09 02:32:05;;;;;;;0.00;0.00;;;;;;;;;;5061995;28;20036;-89
2024/01/09 02:34:32;;;;;;;0.00;0.00;;;;;;;;;;5046469;28;20119;-91
2024/01/09 02:36:57;;;;;;;0.00;0.00;;;;;;;;;;5063556;28;20067;-87
2024/01/09 02:39:23;;;;;;;0.00;0.00;;;;;;;;;;5070117;28;20063;-88
2024/01/09 02:41:48;;;;;;;0.00;0.00;;;;;;;;;;5081559;28;20036;-86
2024/01/09 02:44:14;;;;;;;0.00;0.00;;;;;;;;;;5064791;28;20029;-86
2024/01/09 02:46:40;;;;;;;0.00;0.00;;;;;;;;;;5057691;28;20037;-87
2024/01/09 02:49:05;;;;;;;0.00;0.00;;;;;;;;;;5080637;28;20020;-84
2024/01/09 02:51:31;;;;;;;0.00;0.00;;;;;;;;;;5097161;28;20032;-89
2024/01/09 02:53:56;;;;;;;0.00;0.00;;;;;;;;;;5097486;28;20050;-86
2024/01/09 02:56:22;;;;;;;0.00;0.00;;;;;;;;;;5067658;28;20051;-92
2024/01/09 02:58:48;;;;;;;0.00;0.00;;;;;;;;;;5057592;28;20021;-90
2024/01/09 03:01:14;;;;;;;0.00;0.00;;;;;;;;;;5074007;28;20025;-89
2024/01/09 03:03:39;;;;;;;0.00;0.00;;;;;;;;;;5040504;28;20453;-90
2024/01/09 03:06:05;;;;;;;0.00;0.00;;;;;;;;;;5073505;28;20033;-91
2024/01/09 03:08:30;;;;;;;0.00;0.00;;;;;;;;;;5056764;28;20029;-89
2024/01/09 03:10:56;;;;;;;0.00;0.00;;;;;;;;;;5057258;28;20485;-86
2024/01/09 03:13:21;;;;;;;0.00;0.00;;;;;;;;;;5057351;28;20085;-90
2024/01/09 03:15:47;;;;;;;0.00;0.00;;;;;;;;;;5058198;28;20029;-86
2024/01/09 03:18:14;;;;;;;0.00;0.00;;;;;;;;;;5056802;28;20028;-89
2024/01/09 03:20:40;;;;;;;0.00;0.00;;;;;;;;;;5073301;28;20036;-86
2024/01/09 03:23:05;;;;;;;0.00;0.00;;;;;;;;;;5057191;28;20030;-90
2024/01/09 03:25:31;;;;;;;0.00;0.00;;;;;;;;;;5057141;28;20123;-85
2024/01/09 03:27:56;;;;;;;0.00;0.00;;;;;;;;;;5036230;28;20170;-91
2024/01/09 03:30:22;;;;;;;0.00;0.00;;;;;;;;;;5037304;28;20449;-87
2024/01/09 03:32:48;;;;;;;0.00;0.00;;;;;;;;;;5037048;28;20029;-85
2024/01/09 03:35:13;;;;;;;0.00;0.00;;;;;;;;;;5086726;28;20025;-87
2024/01/09 03:37:39;;;;;;;0.00;0.00;;;;;;;;;;5036217;28;20044;-89
2024/01/09 03:40:05;;;;;;;0.00;0.00;;;;;;;;;;5036596;28;20035;-89
2024/01/09 03:42:30;;;;;;;0.00;0.00;;;;;;;;;;5053909;28;20059;-90
2024/01/09 03:44:56;;;;;;;0.00;0.00;;;;;;;;;;5054137;28;20436;-88
2024/01/09 03:47:21;;;;;;;0.00;0.00;;;;;;;;;;5019797;28;20058;-90
2024/01/09 03:49:47;;;;;;;0.00;0.00;;;;;;;;;;5044522;28;20378;-86
2024/01/09 03:52:12;;;;;;;0.00;0.00;;;;;;;;;;5055560;28;20036;-89
2024/01/09 03:54:38;;;;;;;0.00;0.00;;;;;;;;;;5073561;28;20071;-87
2024/01/09 03:57:03;;;;;;;0.00;0.00;;;;;;;;;;5056859;28;20417;-84
2024/01/09 03:59:29;;;;;;;0.00;0.00;;;;;;;;;;5055557;28;20032;-85
2024/01/09 04:01:54;;;;;;;0.00;0.00;;;;;;;;;;5055314;28;20141;-87
2024/01/09 04:04:20;;;;;;;0.00;0.00;;;;;;;;;;5072732;28;20036;-87
2024/01/09 04:06:45;;;;;;;0.00;0.00;;;;;;;;;;5039101;28;20141;-88
2024/01/09 04:09:12;;;;;;;0.00;0.00;;;;;;;;;;5055879;28;20040;-85
2024/01/09 04:11:45;;;;;;;0.00;0.00;;;;;;;;;;5056230;28;20032;-86
2024/01/09 04:14:10;;;;;;;0.00;0.00;;;;;;;;;;5039366;28;20197;-87
2024/01/09 04:16:36;;;;;;;0.00;0.00;;;;;;;;;;5055657;28;20493;-87
2024/01/09 04:19:01;;;;;;;0.00;0.00;;;;;;;;;;5072931;28;20088;-87
2024/01/09 04:21:27;;;;;;;0.00;0.00;;;;;;;;;;5056234;28;20036;-86
2024/01/09 04:23:53;;;;;;;0.00;0.00;;;;;;;;;;5073441;28;20024;-85
2024/01/09 04:26:19;;;;;;;0.00;0.00;;;;;;;;;;5041749;28;20459;-88
2024/01/09 04:28:44;;;;;;;0.00;0.00;;;;;;;;;;5041197;28;20466;-85
2024/01/09 04:31:10;;;;;;;0.00;0.00;;;;;;;;;;5040155;28;20063;-88
2024/01/09 04:33:36;;;;;;;0.00;0.00;;;;;;;;;;5055517;28;20028;-88
2024/01/09 04:36:01;;;;;;;0.00;0.00;;;;;;;;;;5055751;28;20058;-85
2024/01/09 04:38:27;;;;;;;0.00;0.00;;;;;;;;;;5055600;28;20098;-84
2024/01/09 04:40:52;;;;;;;0.00;0.00;;;;;;;;;;5072356;28;20029;-88
2024/01/09 04:43:18;;;;;;;0.00;0.00;;;;;;;;;;5035178;28;20087;-87
2024/01/09 04:45:43;;;;;;;0.00;0.00;;;;;;;;;;5052444;28;20127;-88
2024/01/09 04:48:09;;;;;;;0.00;0.00;;;;;;;;;;5052173;28;20071;-87
2024/01/09 04:50:34;;;;;;;0.00;0.00;;;;;;;;;;5055780;28;20028;-86
2024/01/09 04:53:00;;;;;;;0.00;0.00;;;;;;;;;;5068911;28;20481;-87
2024/01/09 04:55:26;;;;;;;0.00;0.00;;;;;;;;;;5069348;28;20441;-88
2024/01/09 04:57:51;;;;;;;0.00;0.00;;;;;;;;;;5052038;28;20028;-88
2024/01/09 05:00:19;;;;;;;0.00;0.00;;;;;;;;;;5068632;28;20029;-84
2024/01/09 05:02:44;;;;;;;0.00;0.00;;;;;;;;;;5068333;28;20036;-85
2024/01/09 05:05:10;;;;;;;0.10;0.00;;;;;;;;;;5035555;28;20028;-84
2024/01/09 05:07:35;;;;;;;0.00;0.00;;;;;;;;;;5085378;28;20121;-86
2024/01/09 05:10:02;;;;;;;0.00;0.00;;;;;;;;;;5052415;28;20029;-83
2024/01/09 05:12:28;;;;;;;0.00;0.00;;;;;;;;;;5068397;28;20028;-83
2024/01/09 05:14:54;;;;;;;0.00;0.00;;;;;;;;;;5040158;28;20036;-83
2024/01/09 05:17:19;;;;;;;0.00;0.00;;;;;;;;;;5058779;28;20033;-85
2024/01/09 05:19:45;;;;;;;0.00;0.00;;;;;;;;;;5058473;28;20405;-85
2024/01/09 05:22:12;;;;;;;0.00;0.00;;;;;;;;;;5058632;28;20369;-87
2024/01/09 05:24:37;;;;;;;0.00;0.00;;;;;;;;;;5034325;28;20090;-85
2024/01/09 05:27:08;;;;;;;0.00;0.00;;;;;;;;;;5059701;28;20032;-86
2024/01/09 05:29:37;;;;;;;0.00;0.00;;;;;;;;;;5074555;28;20134;-83
2024/01/09 05:32:04;;;;;;;0.00;0.00;;;;;;;;;;5043018;28;20028;-86
2024/01/09 05:34:30;;;;;;;0.00;0.00;;;;;;;;;;5042851;28;20103;-83
2024/01/09 05:36:55;;;;;;;0.00;0.00;;;;;;;;;;5074962;28;20040;-84
2024/01/09 05:39:21;;;;;;;0.00;0.00;;;;;;;;;;5075803;28;20131;-84
2024/01/09 05:41:46;;;;;;;0.00;0.00;;;;;;;;;;5080691;28;20082;-83
2024/01/09 05:44:12;;;;;;;0.00;0.00;;;;;;;;;;5043333;28;20029;-84
2024/01/09 05:46:37;;;;;;;0.00;0.00;;;;;;;;;;5080870;28;20126;-86
2024/01/09 05:49:06;;;;;;;0.00;0.00;;;;;;;;;;5060096;28;20032;-85
2024/01/09 05:51:40;;;;;;;0.00;0.00;;;;;;;;;;5077202;28;20054;-86
2024/01/09 05:54:06;;;;;;;0.00;0.00;;;;;;;;;;5094019;28;20056;-91
2024/01/09 05:56:31;;;;;;;0.00;0.00;;;;;;;;;;5074686;28;21125;-92
2024/01/09 05:58:57;;;;;;;0.00;0.00;;;;;;;;;;5076058;28;20064;-88
2024/01/09 06:01:23;;;;;;;0.00;0.00;;;;;;;;;;5049019;28;20039;-86
2024/01/09 06:03:53;;;;;;;0.00;0.00;;;;;;;;;;5083943;28;20028;-86
2024/01/09 06:06:19;;;;;;;0.00;0.00;;;;;;;;;;5061596;28;20056;-79
2024/01/09 06:08:45;;;;;;;0.00;0.00;;;;;;;;;;5072524;28;20381;-82
2024/01/09 06:11:13;;;;;;;0.00;0.00;;;;;;;;;;5076280;28;20041;-81
2024/01/09 06:13:39;;;;;;;0.00;0.00;;;;;;;;;;5071078;28;20020;-79
2024/01/09 06:16:04;;;;;;;0.00;0.00;;;;;;;;;;5066800;28;20082;-80
2024/01/09 06:18:30;;;;;;;0.00;0.00;;;;;;;;;;5066671;28;20036;-81
2024/01/09 06:21:16;;;;;;;0.00;0.00;;;;;;;;;;5066808;28;20033;-80
2024/01/09 06:23:41;;;;;;;0.00;0.00;;;;;;;;;;5064570;28;20054;-80
2024/01/09 06:26:33;;;;;;;0.00;0.00;;;;;;;;;;5079570;22;20060;-79
2024/01/09 06:28:58;;;;;;;0.00;0.00;;;;;;;;;;5049931;28;20036;-81
2024/01/09 06:31:24;;;;;;;0.00;0.00;;;;;;;;;;5065994;28;20024;-78
2024/01/09 06:33:50;;;;;;;0.00;0.00;;;;;;;;;;5063075;28;20089;-78
2024/01/09 06:36:15;;;;;;;0.00;0.00;;;;;;;;;;5064987;28;20024;-81
2024/01/09 06:38:41;;;;;;;0.00;0.00;;;;;;;;;;5047433;28;20028;-79
2024/01/09 06:41:06;;;;;;;0.00;0.00;;;;;;;;;;5072118;28;20311;-82
2024/01/09 06:43:32;;;;;;;0.10;0.00;;;;;;;;;;5070405;28;20039;-84
2024/01/09 06:46:40;;;;;;;0.00;0.00;;;;;;;;;;5050877;28;20090;-83
2024/01/09 06:49:06;;;;;;;0.00;0.00;;;;;;;;;;5038379;28;20048;-83
2024/01/09 06:51:31;;;;;;;0.00;0.00;;;;;;;;;;5046971;28;20443;-84
2024/01/09 06:53:57;;;;;;;0.00;0.00;;;;;;;;;;5071336;28;20038;-83
2024/01/09 06:56:23;;;;;;;0.00;0.00;;;;;;;;;;5055967;28;20446;-85
2024/01/09 06:58:51;;;;;;;0.00;0.00;;;;;;;;;;5052406;28;20032;-86
2024/01/09 07:01:16;;;;;;;0.00;0.00;;;;;;;;;;5021538;28;20029;-83
2024/01/09 07:03:42;;;;;;;0.00;0.00;;;;;;;;;;5038359;28;20554;-86
2024/01/09 07:06:24;;;;;;;0.00;0.00;;;;;;;;;;5054063;28;20505;-82
2024/01/09 07:09:06;;;;;;;0.00;0.00;;;;;;;;;;5057554;28;20088;-88
2024/01/09 07:11:34;;;;;;;0.00;0.00;;;;;;;;;;5075650;28;20418;-85
2024/01/09 07:14:13;;;;;;;0.00;0.00;;;;;;;;;;5043066;28;20081;-86
2024/01/09 07:16:40;;;;;;;0.00;0.00;;;;;;;;;;5077763;28;20063;-88
2024/01/09 07:19:08;;;;;;;0.00;0.00;;;;;;;;;;5061442;28;20059;-88
2024/01/09 07:21:34;;;;;;;0.00;0.00;;;;;;;;;;5074980;28;20024;-85
2024/01/09 07:24:01;;;;;;;0.00;0.00;;;;;;;;;;5039697;28;20120;-84
2024/01/09 07:26:28;;;;;;;0.00;0.00;;;;;;;;;;5040880;28;20056;-85
2024/01/09 07:28:54;;;;;;;0.00;0.00;;;;;;;;;;5053667;28;20420;-84
2024/01/09 07:31:20;;;;;;;0.00;0.00;;;;;;;;;;5072039;28;20029;-85
2024/01/09 07:33:48;;;;;;;0.00;0.00;;;;;;;;;;5054679;28;20090;-82
2024/01/09 07:36:17;;;;;;;0.00;0.00;;;;;;;;;;5054098;28;20025;-80
2024/01/09 07:38:43;;;;;;;0.00;0.00;;;;;;;;;;5055449;28;20029;-86
2024/01/09 07:41:10;;;;;;;0.00;0.00;;;;;;;;;;5082166;28;20099;-87
2024/01/09 07:43:36;;;;;;;0.00;0.00;;;;;;;;;;5030667;28;20093;-85
2024/01/09 07:46:01;;;;;;;0.00;0.00;;;;;;;;;;5054463;28;20440;-85
2024/01/09 07:48:27;;;;;;;0.00;0.00;;;;;;;;;;5053701;28;20036;-84
2024/01/09 07:50:54;;;;;;;0.00;0.00;;;;;;;;;;5044290;28;20036;-84
2024/01/09 07:53:20;;;;;;;0.00;0.00;;;;;;;;;;5042630;28;20145;-89
2024/01/09 07:55:45;;;;;;;0.00;0.00;;;;;;;;;;5035084;28;20434;-87
2024/01/09 07:58:24;;;;;;;0.00;0.00;;;;;;;;;;5021288;28;20047;-84
2024/01/09 08:00:53;;;;;;;0.00;0.00;;;;;;;;;;5033299;28;20028;-90
2024/01/09 08:03:19;;;;;;;0.00;0.00;;;;;;;;;;5031890;28;20091;-86
2024/01/09 08:05:45;;;;;;;0.00;0.00;;;;;;;;;;5049436;28;20134;-90
2024/01/09 08:08:11;;;;;;;0.00;0.00;;;;;;;;;;5023125;28;20191;-86
2024/01/09 08:10:37;;;;;;;0.00;0.00;;;;;;;;;;5036671;28;20091;-85
2024/01/09 08:13:11;;;;;;;0.00;0.00;;;;;;;;;;5044571;28;20389;-87
2024/01/09 08:15:38;;;;;;;0.00;0.00;;;;;;;;;;5033324;28;20387;-88
2024/01/09 08:18:04;;;;;;;0.00;0.00;;;;;;;;;;5055568;28;20033;-84
2024/01/09 08:20:40;;;;;;;0.00;0.00;;;;;;;;;;5051813;28;20031;-82
2024/01/09 08:23:06;;;;;;;0.00;0.00;;;;;;;;;;5033281;28;20043;-87
2024/01/09 08:25:31;;;;;;;0.00;0.00;;;;;;;;;;5018091;28;20033;-81
2024/01/09 08:27:57;;;;;;;0.00;0.00;;;;;;;;;;5053759;28;20718;-85
2024/01/09 08:30:22;;;;;;;0.00;0.00;;;;;;;;;;5034990;28;20372;-82
2024/01/09 08:32:48;;;;;;;0.00;0.00;;;;;;;;;;5048143;28;20069;-83
2024/01/09 08:35:13;;;;;;;0.00;0.00;;;;;;;;;;5070158;28;20035;-87
2024/01/09 08:37:39;;;;;;;0.00;0.00;;;;;;;;;;5043425;28;20039;-85
2024/01/09 08:40:06;;;;;;;0.00;0.00;;;;;;;;;;5049819;28;20032;-85
2024/01/09 08:42:31;;;;;;;0.00;0.00;;;;;;;;;;5050552;28;20093;-83
2024/01/09 08:44:57;;;;;;;0.00;0.00;;;;;;;;;;5066741;28;20056;-83
2024/01/09 08:47:22;;;;;;;0.00;0.00;;;;;;;;;;5050171;28;20115;-83
2024/01/09 08:49:48;;;;;;;0.00;0.00;;;;;;;;;;5053828;28;20060;-85
2024/01/09 08:52:14;;;;;;;0.00;0.00;;;;;;;;;;5039493;28;20108;-83
2024/01/09 08:54:40;;;;;;;0.00;0.00;;;;;;;;;;5052684;28;20032;-83
2024/01/09 08:57:06;;;;;;;0.00;0.00;;;;;;;;;;5080331;28;20028;-83
2024/01/09 08:59:32;;;;;;;0.00;0.00;;;;;;;;;;5088078;28;20576;-88
2024/01/09 09:01:57;;;;;;;0.00;0.00;;;;;;;;;;5036468;28;20035;-86
2024/01/09 09:04:23;;;;;;;0.00;0.00;;;;;;;;;;5047529;28;20486;-82
2024/01/09 09:06:51;;;;;;;0.00;0.00;;;;;;;;;;5054777;28;20071;-85
2024/01/09 09:09:17;;;;;;;0.00;0.00;;;;;;;;;;5055506;28;20033;-80
2024/01/09 09:11:42;;;;;;;0.00;0.00;;;;;;;;;;5037646;28;20037;-86
2024/01/09 09:14:08;;;;;;;0.00;0.00;;;;;;;;;;5036350;28;20069;-80
2024/01/09 09:16:35;;;;;;;0.00;0.00;;;;;;;;;;5054322;28;20048;-82
2024/01/09 09:19:02;;;;;;;0.00;0.00;;;;;;;;;;5044024;28;20033;-79
2024/01/09 09:21:28;;;;;;;0.00;0.00;;;;;;;;;;5053917;28;20043;-81
2024/01/09 09:23:53;;;;;;;0.00;0.00;;;;;;;;;;5056273;28;20473;-80
2024/01/09 09:26:19;;;;;;;0.00;0.00;;;;;;;;;;5053749;28;20492;-83
2024/01/09 09:28:48;;;;;;;0.00;0.00;;;;;;;;;;5054149;28;20103;-81
2024/01/09 09:31:15;;;;;;;0.00;0.00;;;;;;;;;;5050465;28;20502;-77
2024/01/09 09:33:44;;;;;;;0.00;0.00;;;;;;;;;;5065036;28;20457;-86
2024/01/09 09:36:11;;;;;;;0.00;0.00;;;;;;;;;;5051524;28;20078;-88
2024/01/09 09:38:37;;;;;;;0.00;0.00;;;;;;;;;;5070745;28;20024;-90
2024/01/09 09:41:06;;;;;;;0.00;0.00;;;;;;;;;;5020280;28;20131;-85
2024/01/09 09:43:33;;;;;;;0.00;0.00;;;;;;;;;;5032311;28;20035;-82
2024/01/09 09:48:54;;;;;;;0.00;0.00;;;;;;;;;;5041648;28;20044;-83
2024/01/09 09:51:25;;;;;;;0.00;0.00;;;;;;;;;;5055225;28;20036;-79
2024/01/09 09:53:53;;;;;;;;;;;;;;;;;;5056670;28;20028;-82
2024/01/09 09:56:19;;;;;;;0.00;0.00;;;;;;;;;;5073194;22;19997;-80
2024/01/09 09:58:45;;;;;;;0.00;0.00;;;;;;;;;;5048315;28;20436;-82
2024/01/09 10:01:14;;;;;;;0.00;0.00;;;;;;;;;;5015506;28;20060;-84
2024/01/09 10:03:55;;;;;;;0.00;0.00;;;;;;;;;;5014879;28;20106;-79
2024/01/09 10:06:23;;;;;;;0.00;0.00;;;;;;;;;;4999457;28;20033;-78
2024/01/09 10:08:49;;;;;;;0.00;0.00;;;;;;;;;;5022318;28;20040;-78
2024/01/09 10:11:15;;;;;;;0.00;0.00;;;;;;;;;;5018787;28;20025;-76
2024/01/09 10:13:41;;;;;;;0.00;0.00;;;;;;;;;;5059095;28;20028;-81
2024/01/09 10:16:06;;;;;;;0.00;0.00;;;;;;;;;;5061479;28;20100;-79
2024/01/09 10:18:32;;;;;;;0.00;0.00;;;;;;;;;;5037375;28;20086;-81
2024/01/09 10:21:01;;;;;;;0.00;0.00;;;;;;;;;;5049326;28;20461;-80
2024/01/09 10:23:27;;;;;;;0.00;0.00;;;;;;;;;;5055609;28;20091;-82
2024/01/09 10:25:56;;;;;;;0.00;0.00;;;;;;;;;;5057050;28;20525;-85
2024/01/09 10:28:22;;;;;;;0.00;0.00;;;;;;;;;;5053241;28;20037;-81
2024/01/09 10:30:49;;;;;;;0.00;0.00;;;;;;;;;;5033627;28;20102;-82
2024/01/09 10:33:15;;;;;;;0.00;0.00;;;;;;;;;;5016843;28;20124;-79
2024/01/09 10:35:41;;;;;;;0.00;0.00;;;;;;;;;;5039320;28;20438;-80
2024/01/09 10:38:20;;;;;;;0.00;0.00;;;;;;;;;;5030562;28;20041;-82
2024/01/09 10:40:45;;;;;;;0.00;0.00;;;;;;;;;;5009542;28;20071;-79
2024/01/09 10:43:12;;;;;;;0.00;0.00;;;;;;;;;;5049726;28;20441;-80
2024/01/09 10:45:38;;;;;;;0.00;0.00;;;;;;;;;;5020523;28;20087;-83
2024/01/09 10:48:04;;;;;;;0.00;0.00;;;;;;;;;;5011074;28;20061;-79
2024/01/09 10:50:31;;;;;;;0.00;0.00;;;;;;;;;;5034341;28;20039;-81
2024/01/09 10:52:57;;;;;;;0.00;0.00;;;;;;;;;;5038071;28;20024;-80
2024/01/09 10:55:23;;;;;;;0.00;0.00;;;;;;;;;;5040875;28;20029;-80
2024/01/09 10:57:49;;;;;;;0.00;0.00;;;;;;;;;;4994753;28;20049;-81
2024/01/09 11:00:16;;;;;;;0.00;0.00;;;;;;;;;;5028581;28;20028;-77
2024/01/09 11:02:41;;;;;;;0.00;0.00;;;;;;;;;;5029373;28;20033;-80
2024/01/09 11:05:08;;;;;;;0.00;0.00;;;;;;;;;;5041657;28;20451;-79
2024/01/09 11:07:33;;;;;;;0.00;0.00;;;;;;;;;;5030473;28;20413;-81
2024/01/09 11:10:03;;;;;;;0.00;0.00;;;;;;;;;;5031202;28;20036;-81
2024/01/09 11:12:38;;;;;;;0.00;0.00;;;;;;;;;;5032895;28;20036;-80
2024/01/09 11:15:08;;;;;;;0.00;0.00;;;;;;;;;;5017332;28;20434;-80
2024/01/09 11:17:33;;;;;;;0.00;0.00;;;;;;;;;;5018124;28;20025;-80
2024/01/09 11:19:59;;;;;;;0.00;0.00;;;;;;;;;;5034511;28;20429;-80
2024/01/09 11:22:25;;;;;;;0.00;0.00;;;;;;;;;;5018827;28;20037;-80
2024/01/09 11:24:55;;;;;;;0.00;0.00;;;;;;;;;;5053152;28;20040;-82
2024/01/09 11:27:21;;;;;;;0.00;0.00;;;;;;;;;;5018958;28;20029;-80
2024/01/09 11:29:53;;;;;;;0.00;0.00;;;;;;;;;;5036178;28;20371;-80
2024/01/09 11:32:24;;;;;;;0.00;0.00;;;;;;;;;;5029631;28;20592;-80
2024/01/09 11:35:06;;;;;;;;;;;;;;;;;;5039027;28;20037;-80
2024/01/09 11:37:32;;;;;;;0.00;0.00;;;;;;;;;;5051617;28;19952;-78
2024/01/09 11:39:58;;;;;;;0.00;0.00;;;;;;;;;;5048163;28;20067;-80
2024/01/09 11:42:24;;;;;;;0.00;0.00;;;;;;;;;;5033177;28;20024;-79
2024/01/09 11:44:50;;;;;;;0.00;0.00;;;;;;;;;;5068833;28;20484;-81
2024/01/09 11:47:15;;;;;;;0.00;0.00;;;;;;;;;;5033377;28;20116;-81
2024/01/09 11:49:40;;;;;;;0.00;0.00;;;;;;;;;;5022149;28;20059;-78
2024/01/09 11:52:06;;;;;;;0.00;0.00;;;;;;;;;;5064486;28;20040;-81
2024/01/09 11:54:33;;;;;;;0.00;0.00;;;;;;;;;;5036121;28;20080;-76
2024/01/09 11:56:59;;;;;;;0.00;0.00;;;;;;;;;;5066405;28;20072;-79
2024/01/09 11:59:25;;;;;;;0.00;0.00;;;;;;;;;;5070070;28;20173;-80
2024/01/09 12:01:51;;;;;;;0.00;0.00;;;;;;;;;;5064852;28;20674;-78
2024/01/09 12:04:16;;;;;;;0.00;0.00;;;;;;;;;;5052746;28;20041;-78
2024/01/09 12:06:42;;;;;;;0.00;0.00;;;;;;;;;;5069674;28;20022;-79
2024/01/09 12:09:10;;;;;;;0.00;0.00;;;;;;;;;;5035325;28;20119;-77
2024/01/09 12:11:37;;;;;;;0.00;0.00;;;;;;;;;;5064457;28;21558;-80
2024/01/09 12:14:03;;;;;;;0.00;0.00;;;;;;;;;;5030697;28;20391;-81
2024/01/09 12:16:32;;;;;;;0.00;0.00;;;;;;;;;;5053739;28;20025;-77
2024/01/09 12:18:58;;;;;;;0.00;0.00;;;;;;;;;;5071769;28;20476;-80
2024/01/09 12:21:24;;;;;;;0.00;0.00;;;;;;;;;;5054801;28;20021;-80
2024/01/09 12:24:01;;;;;;;0.00;0.00;;;;;;;;;;5070512;28;20107;-81
2024/01/09 12:26:28;;;;;;;0.00;0.00;;;;;;;;;;5023017;28;20025;-79
2024/01/09 12:29:08;;;;;;;0.00;0.00;;;;;;;;;;5046391;28;20061;-80
2024/01/09 12:31:33;;;;;;;0.00;0.00;;;;;;;;;;5028685;28;20288;-81
2024/01/09 12:33:59;;;;;;;0.00;0.00;;;;;;;;;;5046191;28;20029;-82
2024/01/09 12:36:26;;;;;;;0.00;0.00;;;;;;;;;;5027977;28;20368;-82
2024/01/09 12:38:52;;;;;;;0.00;0.00;;;;;;;;;;5023202;28;20547;-81
2024/01/09 12:41:19;;;;;;;0.00;0.00;;;;;;;;;;5011628;28;20116;-82
2024/01/09 12:43:45;;;;;;;0.00;0.00;;;;;;;;;;4993788;28;20044;-82
2024/01/09 12:46:10;;;;;;;0.00;0.00;;;;;;;;;;5011448;28;20366;-81
2024/01/09 12:48:37;;;;;;;0.00;0.00;;;;;;;;;;5012395;28;20037;-81
2024/01/09 12:51:04;;;;;;;0.00;0.00;;;;;;;;;;5002509;28;20089;-81
2024/01/09 12:53:33;;;;;;;0.00;0.00;;;;;;;;;;5052246;28;20021;-82
2024/01/09 12:56:05;;;;;;;0.00;0.00;;;;;;;;;;5052103;28;20339;-82
2024/01/09 12:58:32;;;;;;;0.00;0.00;;;;;;;;;;5051885;28;20044;-81
2024/01/09 13:00:57;;;;;;;0.00;0.00;;;;;;;;;;5051404;28;20032;-82
2024/01/09 13:03:23;;;;;;;0.00;0.00;;;;;;;;;;5050686;28;20334;-82
2024/01/09 13:05:48;;;;;;;0.00;0.00;;;;;;;;;;5069147;28;20036;-82
2024/01/09 13:08:15;;;;;;;0.00;0.00;;;;;;;;;;5052627;28;20717;-82
2024/01/09 13:10:40;;;;;;;0.00;0.00;;;;;;;;;;5053554;28;20338;-82
2024/01/09 13:13:07;;;;;;;0.00;0.00;;;;;;;;;;5050677;28;20067;-82
2024/01/09 13:15:32;;;;;;;0.00;0.00;;;;;;;;;;5052350;28;20029;-82
2024/01/09 13:17:58;;;;;;;0.00;0.00;;;;;;;;;;5035021;28;20040;-82
2024/01/09 13:20:25;;;;;;;0.00;0.00;;;;;;;;;;5053038;28;20021;-81
2024/01/09 13:22:50;;;;;;;0.00;0.00;;;;;;;;;;5053043;28;20032;-81
2024/01/09 13:25:16;;;;;;;0.00;0.00;;;;;;;;;;5053071;28;20017;-82
2024/01/09 13:27:44;;;;;;;0.00;0.00;;;;;;;;;;5035267;28;20028;-82
2024/01/09 13:30:10;;;;;;;0.00;0.00;;;;;;;;;;5052719;28;20033;-82
2024/01/09 13:32:37;;;;;;;0.00;0.00;;;;;;;;;;5052610;28;20068;-82
2024/01/09 13:35:03;;;;;;;0.00;0.00;;;;;;;;;;5037157;28;20033;-82
2024/01/09 13:37:29;;;;;;;0.00;0.00;;;;;;;;;;5056474;28;20437;-82
2024/01/09 13:39:56;;;;;;;0.00;0.00;;;;;;;;;;5022402;28;20035;-84
2024/01/09 13:42:22;;;;;;;0.00;0.00;;;;;;;;;;5039773;28;20377;-84
2024/01/09 13:44:47;;;;;;;0.00;0.00;;;;;;;;;;5061008;28;20024;-83
2024/01/09 13:47:13;;;;;;;0.00;0.00;;;;;;;;;;5039196;28;20025;-78
2024/01/09 13:49:39;;;;;;;0.00;0.00;;;;;;;;;;5038473;28;20051;-79
2024/01/09 13:52:05;;;;;;;0.00;0.00;;;;;;;;;;5057988;28;20091;-78
2024/01/09 13:54:31;;;;;;;0.00;0.00;;;;;;;;;;5028256;28;20051;-77
2024/01/09 13:56:57;;;;;;;0.00;0.00;;;;;;;;;;5025561;28;20084;-80
2024/01/09 13:59:22;;;;;;;0.00;0.00;;;;;;;;;;5036051;28;20025;-79
2024/01/09 14:01:49;;;;;;;0.00;0.00;;;;;;;;;;5018304;28;20036;-79
2024/01/09 14:04:15;;;;;;;0.00;0.00;;;;;;;;;;5018826;28;20055;-79
2024/01/09 14:06:45;;;;;;;0.00;0.00;;;;;;;;;;5002244;28;20447;-79
2024/01/09 14:09:11;;;;;;;0.00;0.00;;;;;;;;;;5001920;28;20433;-79
2024/01/09 14:11:36;;;;;;;0.00;0.00;;;;;;;;;;5018236;28;20037;-79
2024/01/09 14:14:02;;;;;;;0.00;0.00;;;;;;;;;;5001689;28;20379;-79
2024/01/09 14:16:27;;;;;;;0.00;0.00;;;;;;;;;;5017688;28;20037;-79
2024/01/09 14:18:53;;;;;;;0.00;0.00;;;;;;;;;;4985422;28;20033;-79
2024/01/09 14:21:19;;;;;;;0.00;0.00;;;;;;;;;;5018150;28;20025;-79
2024/01/09 14:23:45;;;;;;;0.00;0.00;;;;;;;;;;5001663;28;20040;-79
2024/01/09 14:26:11;;;;;;;0.00;0.00;;;;;;;;;;5017847;28;20041;-79
2024/01/09 14:28:37;;;;;;;0.00;0.00;;;;;;;;;;5017555;28;20120;-78
2024/01/09 14:31:03;;;;;;;0.00;0.00;;;;;;;;;;5001382;28;20460;-78
2024/01/09 14:33:29;;;;;;;0.00;0.00;;;;;;;;;;5017469;28;20498;-79
2024/01/09 14:35:59;;;;;;;0.00;0.00;;;;;;;;;;5017787;28;20124;-82
2024/01/09 14:38:24;;;;;;;0.00;0.00;;;;;;;;;;5002031;28;20036;-80
2024/01/09 14:40:50;;;;;;;0.00;0.00;;;;;;;;;;4984831;28;20112;-80
2024/01/09 14:43:15;;;;;;;0.00;0.00;;;;;;;;;;5001089;28;20029;-80